createdAt,value
2023-03-16T00:00:35.205Z,5.85
2023-03-16T00:03:05.058Z,5.32
2023-03-16T00:05:33.473Z,5.05
2023-03-16T00:08:01.461Z,4.95
2023-03-16T00:10:29.824Z,5.07
2023-03-16T00:12:58.716Z,5.70
2023-03-16T00:15:26.765Z,5.90
2023-03-16T00:17:55.011Z,4.25
2023-03-16T00:20:24.496Z,6.03
2023-03-16T00:22:52.739Z,6.28
2023-03-16T00:25:20.854Z,5.68
2023-03-16T00:27:48.897Z,5.50
2023-03-16T00:30:17.521Z,6.82
2023-03-16T00:32:45.842Z,5.95
2023-03-16T00:35:14.019Z,5.47
2023-03-16T00:37:44.325Z,6.47
2023-03-16T00:40:13.926Z,6.70
2023-03-16T00:42:42.217Z,5.82
2023-03-16T00:45:11.925Z,5.30
2023-03-16T00:47:40.161Z,5.90
2023-03-16T00:50:09.554Z,7.65
2023-03-16T00:52:37.824Z,5.93
2023-03-16T00:55:08.626Z,5.32
2023-03-16T00:57:37.011Z,5.28
2023-03-16T01:00:13.050Z,6.43
2023-03-16T01:02:42.186Z,6.00
2023-03-16T01:05:11.281Z,4.35
2023-03-16T01:07:39.725Z,6.85
2023-03-16T01:10:10.834Z,5.35
2023-03-16T01:12:39.129Z,5.70
2023-03-16T01:15:08.327Z,4.80
2023-03-16T01:17:36.640Z,5.55
2023-03-16T01:20:08.207Z,6.30
2023-03-16T01:22:36.383Z,6.90
2023-03-16T01:25:05.804Z,6.60
2023-03-16T01:27:36.580Z,5.72
2023-03-16T01:30:05.852Z,6.50
2023-03-16T01:32:34.561Z,8.35
2023-03-16T01:35:02.829Z,7.40
2023-03-16T01:37:31.806Z,6.05
2023-03-16T01:40:06.409Z,7.00
2023-03-16T01:42:45.358Z,6.18
2023-03-16T01:45:46.723Z,7.75
2023-03-16T01:48:15.805Z,8.02
2023-03-16T01:50:44.490Z,6.82
2023-03-16T01:53:13.364Z,7.55
2023-03-16T01:55:43.586Z,9.88
2023-03-16T01:58:14.640Z,7.03
2023-03-16T02:00:45.789Z,6.28
2023-03-16T02:03:23.734Z,6.53
2023-03-16T02:06:14.685Z,8.00
2023-03-16T02:08:50.278Z,6.75
2023-03-16T02:11:18.736Z,7.40
2023-03-16T02:14:07.484Z,8.07
2023-03-16T02:16:35.859Z,6.40
2023-03-16T02:19:07.936Z,8.68
2023-03-16T02:21:43.679Z,8.55
2023-03-16T02:24:12.234Z,7.85
2023-03-16T02:26:45.642Z,9.32
2023-03-16T02:29:30.885Z,8.85
2023-03-16T02:32:02.916Z,7.80
2023-03-16T02:34:31.472Z,8.88
2023-03-16T02:37:00.912Z,8.07
2023-03-16T02:39:29.842Z,7.32
2023-03-16T02:41:58.151Z,8.52
2023-03-16T02:44:29.009Z,8.45
2023-03-16T02:47:04.856Z,8.43
2023-03-16T02:49:37.685Z,10.82
2023-03-16T02:52:07.332Z,8.50
2023-03-16T02:54:35.824Z,8.38
2023-03-16T02:57:05.106Z,8.52
2023-03-16T02:59:34.406Z,8.60
2023-03-16T03:02:04.246Z,9.27
2023-03-16T03:04:33.374Z,9.25
2023-03-16T03:07:04.970Z,9.18
2023-03-16T03:09:43.381Z,8.95
2023-03-16T03:12:13.204Z,9.52
2023-03-16T03:14:41.230Z,9.23
2023-03-16T03:17:13.467Z,9.65
2023-03-16T03:19:42.209Z,9.35
2023-03-16T03:22:10.747Z,11.35
2023-03-16T03:24:38.948Z,10.88
2023-03-16T03:27:07.383Z,12.10
2023-03-16T03:29:38.843Z,12.10
2023-03-16T03:32:08.209Z,11.35
2023-03-16T03:34:38.327Z,10.73
2023-03-16T03:37:07.042Z,10.10
2023-03-16T03:39:36.134Z,10.18
2023-03-16T03:42:04.575Z,13.52
2023-03-16T03:44:34.981Z,10.15
2023-03-16T03:47:03.642Z,11.05
2023-03-16T03:49:32.494Z,12.70
2023-03-16T03:52:05.038Z,9.98
2023-03-16T03:54:33.553Z,9.45
2023-03-16T03:57:07.069Z,12.07
2023-03-16T03:59:42.528Z,11.90
2023-03-16T04:02:11.259Z,11.38
2023-03-16T04:04:45.711Z,10.65
2023-03-16T04:07:16.659Z,10.95
2023-03-16T04:09:46.316Z,11.45
2023-03-16T04:12:25.877Z,8.93
2023-03-16T04:14:54.716Z,10.15
2023-03-16T04:17:24.612Z,9.88
2023-03-16T04:19:54.029Z,10.38
2023-03-16T04:22:23.952Z,10.20
2023-03-16T04:24:53.376Z,9.43
2023-03-16T04:27:22.613Z,11.75
2023-03-16T04:29:50.967Z,8.30
2023-03-16T04:32:19.545Z,7.85
2023-03-16T04:34:48.379Z,7.72
2023-03-16T04:37:18.359Z,11.60
2023-03-16T04:39:48.016Z,9.80
2023-03-16T04:42:16.160Z,9.75
2023-03-16T04:44:45.263Z,10.85
2023-03-16T04:47:16.834Z,9.50
2023-03-16T04:49:46.740Z,9.95
2023-03-16T04:52:15.809Z,8.90
2023-03-16T04:54:44.464Z,9.45
2023-03-16T04:57:19.315Z,8.93
2023-03-16T04:59:50.297Z,8.05
2023-03-16T05:02:25.120Z,8.82
2023-03-16T05:04:53.658Z,9.23
2023-03-16T05:07:21.948Z,8.15
2023-03-16T05:09:54.900Z,8.50
2023-03-16T05:12:24.854Z,8.52
2023-03-16T05:14:57.716Z,9.00
2023-03-16T05:17:38.268Z,9.88
2023-03-16T05:20:08.485Z,7.38
2023-03-16T05:22:42.079Z,9.18
2023-03-16T05:25:21.724Z,8.45
2023-03-16T05:27:55.376Z,9.13
2023-03-16T05:30:33.670Z,9.38
2023-03-16T05:33:05.800Z,9.48
2023-03-16T05:35:34.998Z,9.43
2023-03-16T05:38:08.745Z,10.18
2023-03-16T05:40:40.474Z,9.27
2023-03-16T05:43:18.306Z,8.98
2023-03-16T05:45:50.809Z,9.80
2023-03-16T05:48:21.368Z,8.63
2023-03-16T05:50:56.341Z,7.90
2023-03-16T05:53:29.405Z,8.02
2023-03-16T05:56:06.018Z,8.77
2023-03-16T05:58:38.379Z,9.45
2023-03-16T06:01:10.701Z,9.00
2023-03-16T06:03:39.128Z,8.77
2023-03-16T06:06:09.902Z,8.52
2023-03-16T06:08:51.733Z,8.63
2023-03-16T06:11:21.980Z,7.95
2023-03-16T06:13:52.065Z,8.52
2023-03-16T06:16:20.069Z,8.02
2023-03-16T06:18:48.137Z,6.68
2023-03-16T06:21:16.614Z,9.70
2023-03-16T06:23:47.590Z,8.48
2023-03-16T06:26:16.314Z,9.10
2023-03-16T06:28:46.990Z,7.78
2023-03-16T06:31:16.692Z,7.70
2023-03-16T06:33:47.073Z,9.57
2023-03-16T06:36:15.709Z,7.88
2023-03-16T06:38:48.679Z,8.25
2023-03-16T06:41:36.053Z,8.63
2023-03-16T06:44:06.126Z,9.50
2023-03-16T06:46:39.412Z,8.57
2023-03-16T06:49:09.179Z,8.82
2023-03-16T06:51:37.369Z,9.07
2023-03-16T06:54:06.072Z,9.68
2023-03-16T06:56:38.074Z,8.05
2023-03-16T06:59:07.643Z,7.70
2023-03-16T07:01:38.920Z,10.13
2023-03-16T07:04:07.641Z,8.45
2023-03-16T07:06:36.186Z,8.50
2023-03-16T07:09:05.231Z,7.82
2023-03-16T07:11:34.163Z,9.45
2023-03-16T07:14:02.660Z,9.50
2023-03-16T07:16:33.510Z,8.60
2023-03-16T07:19:06.253Z,7.70
2023-03-16T07:21:39.996Z,12.43
2023-03-16T07:24:13.052Z,11.75
2023-03-16T07:26:43.674Z,12.43
2023-03-16T07:29:17.125Z,12.15
2023-03-16T07:31:45.790Z,10.48
2023-03-16T07:34:21.281Z,9.30
2023-03-16T07:36:54.713Z,7.53
2023-03-16T07:39:25.028Z,7.13
2023-03-16T07:42:00.150Z,5.40
2023-03-16T07:45:00.503Z,5.20
2023-03-16T07:47:30.638Z,6.82
2023-03-16T07:50:05.393Z,3.70
2023-03-16T07:52:37.452Z,4.50
2023-03-16T07:55:06.916Z,2.75
2023-03-16T07:57:35.887Z,2.85
2023-03-16T08:00:05.595Z,3.08
2023-03-16T08:02:42.538Z,3.90
2023-03-16T08:06:04.712Z,4.90
2023-03-16T08:08:36.055Z,5.22
2023-03-16T08:11:04.796Z,4.85
2023-03-16T08:13:44.623Z,3.08
2023-03-16T08:16:14.002Z,4.35
2023-03-16T08:18:45.729Z,2.88
2023-03-16T08:21:15.803Z,2.72
2023-03-16T08:23:49.446Z,2.42
2023-03-16T08:26:21.539Z,2.15
2023-03-16T08:28:55.420Z,2.20
2023-03-16T08:31:25.381Z,2.00
2023-03-16T08:34:01.439Z,1.70
2023-03-16T08:36:32.208Z,1.70
2023-03-16T08:39:07.592Z,1.38
2023-03-16T08:41:47.315Z,2.40
2023-03-16T08:44:26.256Z,1.23
2023-03-16T08:46:54.791Z,1.48
2023-03-16T08:49:24.226Z,1.38
2023-03-16T08:52:01.510Z,2.08
2023-03-16T08:54:33.065Z,1.20
2023-03-16T08:57:01.385Z,1.67
2023-03-16T08:59:30.721Z,1.75
2023-03-16T09:02:00.642Z,2.60
2023-03-16T09:04:30.069Z,1.40
2023-03-16T09:07:08.389Z,1.63
2023-03-16T09:09:39.865Z,1.65
2023-03-16T09:12:08.746Z,1.10
2023-03-16T09:14:38.696Z,1.17
2023-03-16T09:17:07.843Z,1.40
2023-03-16T09:19:53.983Z,2.20
2023-03-16T09:22:24.519Z,1.10
2023-03-16T09:24:54.051Z,1.38
2023-03-16T09:27:22.689Z,1.05
2023-03-16T09:29:53.291Z,1.20
2023-03-16T09:32:21.828Z,1.92
2023-03-16T09:34:50.717Z,1.55
2023-03-16T09:37:19.665Z,1.52
2023-03-16T09:39:48.453Z,1.20
2023-03-16T09:42:24.124Z,1.50
2023-03-16T09:45:06.345Z,1.25
2023-03-16T09:47:37.780Z,1.00
2023-03-16T09:50:09.955Z,0.90
2023-03-16T09:52:45.458Z,1.10
2023-03-16T09:55:28.000Z,1.40
2023-03-16T09:57:58.876Z,1.40
2023-03-16T10:00:31.681Z,1.52
2023-03-16T10:03:12.931Z,1.30
2023-03-16T10:05:42.414Z,1.00
2023-03-16T10:08:16.892Z,1.55
2023-03-16T10:11:15.540Z,2.00
2023-03-16T10:13:49.315Z,1.77
2023-03-16T10:16:22.700Z,2.30
2023-03-16T10:18:58.678Z,1.88
2023-03-16T10:21:27.443Z,1.55
2023-03-16T10:23:57.189Z,1.98
2023-03-16T10:26:32.404Z,1.30
2023-03-16T10:29:02.392Z,2.47
2023-03-16T10:31:31.004Z,1.33
2023-03-16T10:34:06.214Z,1.80
2023-03-16T10:36:36.932Z,1.70
2023-03-16T10:39:06.859Z,3.50
2023-03-16T10:41:36.847Z,1.70
2023-03-16T10:44:12.126Z,2.20
2023-03-16T10:46:42.981Z,2.53
2023-03-16T10:49:23.387Z,3.83
2023-03-16T10:51:52.438Z,1.80
2023-03-16T10:54:28.146Z,2.40
2023-03-16T10:56:56.765Z,2.78
2023-03-16T10:59:38.967Z,2.40
2023-03-16T11:02:19.619Z,2.40
2023-03-16T11:04:47.997Z,1.80
2023-03-16T11:07:20.957Z,2.10
2023-03-16T11:09:50.056Z,2.25
2023-03-16T11:12:25.759Z,1.58
2023-03-16T11:14:56.366Z,1.50
2023-03-16T11:17:35.384Z,1.42
2023-03-16T11:20:14.650Z,1.10
2023-03-16T11:22:47.300Z,1.35
2023-03-16T11:25:30.627Z,1.58
2023-03-16T11:28:12.100Z,1.63
2023-03-16T11:30:46.320Z,1.80
2023-03-16T11:33:15.576Z,1.33
2023-03-16T11:35:58.821Z,1.30
2023-03-16T11:38:36.318Z,1.30
2023-03-16T11:41:09.374Z,1.42
2023-03-16T11:43:52.997Z,1.40
2023-03-16T11:46:24.920Z,1.35
2023-03-16T11:49:08.710Z,1.85
2023-03-16T11:51:44.627Z,1.52
2023-03-16T11:54:29.401Z,1.30
2023-03-16T11:57:01.911Z,1.20
2023-03-16T12:00:00.613Z,1.17
2023-03-16T12:02:57.934Z,1.90
2023-03-16T12:05:46.109Z,1.45
2023-03-16T12:08:26.324Z,1.27
2023-03-16T12:10:58.736Z,1.42
2023-03-16T12:13:41.068Z,1.58
2023-03-16T12:16:16.822Z,1.27
2023-03-16T12:18:51.657Z,1.50
2023-03-16T12:21:24.585Z,1.50
2023-03-16T12:23:55.345Z,1.48
2023-03-16T12:26:29.930Z,1.05
2023-03-16T12:28:59.801Z,1.55
2023-03-16T12:31:38.771Z,1.55
2023-03-16T12:34:20.720Z,1.20
2023-03-16T12:36:59.114Z,2.22
2023-03-16T12:39:43.133Z,1.65
2023-03-16T12:42:27.772Z,1.38
2023-03-16T12:44:58.639Z,1.70
2023-03-16T12:47:33.831Z,1.85
2023-03-16T12:50:11.362Z,1.15
2023-03-16T12:52:45.502Z,2.03
2023-03-16T12:55:16.465Z,1.80
2023-03-16T12:57:46.227Z,1.58
2023-03-16T13:00:16.296Z,1.52
2023-03-16T13:02:51.921Z,1.65
2023-03-16T13:05:32.951Z,1.83
2023-03-16T13:08:13.758Z,2.08
2023-03-16T13:10:42.877Z,1.90
2023-03-16T13:13:13.126Z,2.10
2023-03-16T13:15:42.217Z,2.10
2023-03-16T13:18:35.268Z,1.75
2023-03-16T13:21:17.942Z,2.17
2023-03-16T13:23:55.034Z,1.58
2023-03-16T13:26:40.573Z,3.65
2023-03-16T13:29:21.762Z,2.08
2023-03-16T13:31:50.439Z,1.63
2023-03-16T13:34:22.478Z,2.13
2023-03-16T13:36:57.246Z,1.58
2023-03-16T13:39:28.519Z,2.13
2023-03-16T13:42:03.580Z,2.55
2023-03-16T13:44:33.364Z,1.70
2023-03-16T13:47:06.071Z,1.75
2023-03-16T13:49:34.479Z,2.20
2023-03-16T13:52:05.940Z,2.10
2023-03-16T13:54:38.756Z,2.13
2023-03-16T13:57:12.748Z,2.70
2023-03-16T13:59:43.716Z,1.48
2023-03-16T14:02:19.601Z,1.90
2023-03-16T14:04:48.531Z,2.42
2023-03-16T14:07:20.902Z,2.03
2023-03-16T14:09:50.032Z,2.65
2023-03-16T14:12:20.275Z,1.77
2023-03-16T14:14:51.769Z,2.22
2023-03-16T14:17:22.109Z,1.65
2023-03-16T14:19:52.528Z,2.22
2023-03-16T14:22:25.451Z,1.40
2023-03-16T14:24:56.960Z,2.00
2023-03-16T14:27:30.643Z,1.77
2023-03-16T14:30:02.959Z,1.50
2023-03-16T14:32:33.548Z,1.30
2023-03-16T14:35:13.209Z,1.70
2023-03-16T14:37:43.764Z,2.22
2023-03-16T14:40:25.518Z,1.90
2023-03-16T14:42:54.881Z,1.70
2023-03-16T14:45:24.132Z,1.52
2023-03-16T14:47:54.007Z,2.10
2023-03-16T14:50:26.485Z,2.00
2023-03-16T14:52:58.125Z,1.63
2023-03-16T14:55:27.114Z,1.60
2023-03-16T14:57:55.786Z,1.92
2023-03-16T15:00:25.575Z,1.50
2023-03-16T15:03:00.524Z,1.92
2023-03-16T15:05:36.621Z,2.35
2023-03-16T15:08:09.545Z,1.52
2023-03-16T15:10:38.064Z,1.63
2023-03-16T15:13:17.055Z,2.00
2023-03-16T15:15:48.604Z,1.95
2023-03-16T15:18:17.352Z,2.20
2023-03-16T15:20:49.765Z,2.60
2023-03-16T15:23:19.483Z,1.90
2023-03-16T15:25:49.458Z,2.25
2023-03-16T15:28:19.508Z,2.40
2023-03-16T15:30:49.284Z,2.53
2023-03-16T15:33:18.095Z,1.50
2023-03-16T15:35:47.781Z,2.28
2023-03-16T15:38:19.294Z,1.90
2023-03-16T15:40:51.330Z,2.65
2023-03-16T15:43:22.877Z,1.73
2023-03-16T15:45:52.220Z,2.45
2023-03-16T15:48:24.412Z,1.88
2023-03-16T15:50:56.027Z,1.80
2023-03-16T15:53:31.291Z,1.80
2023-03-16T15:56:04.357Z,2.42
2023-03-16T15:58:35.179Z,2.15
2023-03-16T16:01:06.182Z,3.17
2023-03-16T16:03:35.098Z,2.15
2023-03-16T16:06:03.909Z,1.65
2023-03-16T16:08:32.404Z,1.75
2023-03-16T16:11:07.500Z,2.58
2023-03-16T16:13:44.635Z,1.60
2023-03-16T16:16:15.748Z,2.03
2023-03-16T16:18:44.264Z,2.75
2023-03-16T16:21:18.012Z,1.88
2023-03-16T16:23:46.654Z,1.80
2023-03-16T16:26:34.353Z,1.85
2023-03-16T16:29:14.279Z,2.08
2023-03-16T16:31:42.909Z,2.97
2023-03-16T16:34:14.983Z,2.72
2023-03-16T16:36:43.192Z,2.22
2023-03-16T16:39:11.946Z,2.17
2023-03-16T16:41:43.640Z,2.83
2023-03-16T16:44:18.710Z,3.13
2023-03-16T16:46:49.304Z,3.85
2023-03-16T16:49:24.537Z,3.42
2023-03-16T16:51:54.072Z,2.10
2023-03-16T16:54:24.121Z,2.28
2023-03-16T16:56:56.365Z,3.15
2023-03-16T16:59:27.456Z,2.30
2023-03-16T17:01:56.686Z,2.97
2023-03-16T17:04:27.664Z,2.95
2023-03-16T17:06:59.832Z,3.22
2023-03-16T17:09:29.125Z,4.05
2023-03-16T17:11:59.876Z,3.33
2023-03-16T17:14:28.975Z,4.43
2023-03-16T17:16:57.750Z,3.55
2023-03-16T17:19:28.135Z,4.20
2023-03-16T17:21:58.681Z,4.43
2023-03-16T17:24:28.728Z,4.78
2023-03-16T17:27:01.643Z,6.20
2023-03-16T17:29:32.495Z,6.07
2023-03-16T17:32:00.831Z,5.03
2023-03-16T17:34:33.288Z,5.10
2023-03-16T17:37:02.824Z,5.03
2023-03-16T17:39:32.838Z,6.55
2023-03-16T17:42:05.076Z,7.30
2023-03-16T17:44:36.138Z,5.45
2023-03-16T17:47:05.094Z,5.35
2023-03-16T17:49:33.885Z,6.05
2023-03-16T17:52:02.612Z,5.63
2023-03-16T17:54:30.941Z,5.90
2023-03-16T17:56:59.962Z,7.70
2023-03-16T17:59:29.962Z,6.10
2023-03-16T18:01:58.975Z,7.13
2023-03-16T18:04:27.708Z,6.97
2023-03-16T18:06:56.785Z,6.63
2023-03-16T18:09:24.838Z,6.95
2023-03-16T18:11:53.155Z,6.30
2023-03-16T18:14:35.007Z,6.60
2023-03-16T18:17:16.304Z,6.28
2023-03-16T18:19:45.579Z,6.70
2023-03-16T18:22:19.520Z,5.95
2023-03-16T18:24:48.601Z,5.47
2023-03-16T18:27:17.366Z,6.00
2023-03-16T18:29:47.035Z,5.57
2023-03-16T18:32:22.963Z,5.75
2023-03-16T18:34:53.033Z,6.00
2023-03-16T18:37:24.564Z,6.30
2023-03-16T18:39:54.912Z,5.88
2023-03-16T18:42:25.908Z,6.10
2023-03-16T18:44:54.775Z,5.90
2023-03-16T18:47:31.541Z,6.18
2023-03-16T18:50:00.834Z,7.32
2023-03-16T18:52:32.873Z,7.15
2023-03-16T18:55:01.178Z,9.57
2023-03-16T18:57:29.943Z,5.88
2023-03-16T18:59:58.167Z,4.25
2023-03-16T19:02:34.960Z,4.88
2023-03-16T19:05:06.012Z,4.10
2023-03-16T19:07:37.518Z,4.20
2023-03-16T19:10:15.868Z,4.72
2023-03-16T19:12:44.208Z,3.92
2023-03-16T19:15:21.411Z,3.28
2023-03-16T19:17:53.649Z,3.97
2023-03-16T19:20:24.904Z,4.55
2023-03-16T19:23:01.014Z,4.22
2023-03-16T19:25:33.197Z,4.70
2023-03-16T19:28:02.147Z,4.32
2023-03-16T19:30:32.339Z,3.70
2023-03-16T19:33:03.088Z,4.47
2023-03-16T19:35:50.360Z,3.97
2023-03-16T19:38:19.768Z,4.53
2023-03-16T19:40:50.983Z,4.22
2023-03-16T19:43:21.742Z,5.32
2023-03-16T19:45:51.502Z,4.75
2023-03-16T19:48:27.390Z,4.88
2023-03-16T19:50:55.784Z,4.82
2023-03-16T19:53:24.518Z,5.05
2023-03-16T19:55:54.611Z,4.97
2023-03-16T19:58:31.171Z,3.95
2023-03-16T20:01:01.387Z,5.35
2023-03-16T20:03:34.594Z,5.43
2023-03-16T20:06:29.340Z,5.18
2023-03-16T20:08:58.019Z,5.25
2023-03-16T20:11:29.668Z,5.78
2023-03-16T20:14:00.386Z,6.20
2023-03-16T20:16:32.279Z,6.07
2023-03-16T20:19:05.339Z,6.78
2023-03-16T20:21:34.009Z,7.10
2023-03-16T20:24:02.366Z,6.20
2023-03-16T20:26:32.925Z,5.80
2023-03-16T20:29:02.055Z,5.88
2023-03-16T20:31:34.707Z,6.78
2023-03-16T20:34:04.956Z,5.63
2023-03-16T20:36:33.703Z,7.15
2023-03-16T20:39:02.042Z,8.65
2023-03-16T20:41:32.804Z,7.78
2023-03-16T20:44:02.129Z,7.85
2023-03-16T20:46:33.594Z,7.55
2023-03-16T20:49:02.357Z,9.00
2023-03-16T20:51:31.856Z,8.75
2023-03-16T20:54:00.179Z,6.50
2023-03-16T20:56:28.334Z,7.95
2023-03-16T20:58:57.045Z,7.53
2023-03-16T21:01:26.563Z,7.43
2023-03-16T21:03:57.084Z,8.95
2023-03-16T21:06:28.586Z,7.05
2023-03-16T21:08:59.831Z,6.97
2023-03-16T21:11:32.798Z,5.75
2023-03-16T21:14:00.990Z,6.45
2023-03-16T21:16:30.396Z,7.63
2023-03-16T21:18:58.978Z,7.25
2023-03-16T21:21:26.993Z,6.80
2023-03-16T21:23:55.585Z,8.38
2023-03-16T21:26:28.961Z,8.52
2023-03-16T21:29:00.468Z,5.47
2023-03-16T21:31:28.988Z,6.55
2023-03-16T21:33:57.722Z,7.15
2023-03-16T21:36:27.293Z,8.13
2023-03-16T21:38:57.437Z,6.25
2023-03-16T21:41:27.608Z,6.22
2023-03-16T21:43:56.944Z,7.15
2023-03-16T21:46:26.484Z,5.75
2023-03-16T21:48:56.429Z,6.53
2023-03-16T21:51:28.661Z,6.35
2023-03-16T21:53:58.164Z,5.75
2023-03-16T21:56:28.000Z,5.90
2023-03-16T21:58:56.089Z,6.68
2023-03-16T22:01:26.592Z,7.35
2023-03-16T22:03:57.699Z,6.68
2023-03-16T22:06:28.113Z,6.43
2023-03-16T22:08:57.567Z,5.63
2023-03-16T22:11:29.091Z,6.85
2023-03-16T22:13:59.116Z,5.40
2023-03-16T22:16:30.197Z,6.18
2023-03-16T22:18:58.840Z,5.75
2023-03-16T22:21:32.574Z,5.85
2023-03-16T22:24:01.717Z,5.57
2023-03-16T22:26:31.908Z,5.80
2023-03-16T22:29:01.665Z,5.35
2023-03-16T22:31:33.829Z,4.88
2023-03-16T22:34:03.241Z,5.00
2023-03-16T22:36:33.804Z,4.60
2023-03-16T22:39:04.813Z,4.95
2023-03-16T22:41:34.265Z,3.80
2023-03-16T22:44:03.049Z,5.05
2023-03-16T22:46:31.642Z,4.20
2023-03-16T22:48:59.937Z,3.60
2023-03-16T22:51:31.449Z,3.65
2023-03-16T22:54:02.514Z,3.25
2023-03-16T22:56:31.896Z,3.00
2023-03-16T22:59:04.249Z,3.30
2023-03-16T23:01:35.077Z,4.28
2023-03-16T23:04:03.457Z,3.15
2023-03-16T23:06:33.544Z,2.72
2023-03-16T23:09:02.303Z,2.22
2023-03-16T23:11:33.277Z,2.10
2023-03-16T23:14:04.028Z,2.90
2023-03-16T23:16:35.926Z,2.20
2023-03-16T23:19:12.517Z,3.40
2023-03-16T23:21:50.749Z,3.67
2023-03-16T23:24:19.048Z,3.33
2023-03-16T23:26:47.375Z,3.10
2023-03-16T23:29:16.998Z,2.85
2023-03-16T23:31:45.039Z,2.78
2023-03-16T23:34:14.369Z,2.40
2023-03-16T23:36:43.344Z,2.33
2023-03-16T23:39:12.294Z,2.97
2023-03-16T23:41:43.192Z,2.45
2023-03-16T23:44:16.752Z,3.20
2023-03-16T23:46:46.989Z,2.90
2023-03-16T23:49:20.537Z,3.85
2023-03-16T23:51:48.849Z,3.10
2023-03-16T23:54:20.169Z,2.95
2023-03-16T23:56:48.800Z,3.42
2023-03-16T23:59:16.869Z,3.83
